Time;durP1;ratioP1;P1;durP2;ratioP2;P2;SDS_P1;SDS_P2;PMS_P1;PMS_P2;Temp;Humidity;BMP_temperature;BMP_pressure;BME280_temperature;BME280_humidity;BME280_pressure;Samples;Min_cycle;Max_cycle;Signal;HPM_P1;HPM_P2
2023/06/19 00:00:02;;;;;;;15.30;13.88;;;22.00;83.00;;;;;;4995755;28;20084;-71
2023/06/19 00:02:40;;;;;;;14.98;13.55;;;21.90;83.50;;;;;;5010295;28;20503;-72
2023/06/19 00:05:10;;;;;;;14.75;13.35;;;21.90;83.80;;;;;;5010752;28;20069;-72
2023/06/19 00:07:38;;;;;;;14.82;13.32;;;21.90;84.00;;;;;;4989481;28;20149;-72
2023/06/19 00:10:08;;;;;;;14.90;13.50;;;21.80;84.20;;;;;;5009727;28;20057;-72
2023/06/19 00:12:36;;;;;;;14.40;12.90;;;21.80;84.80;;;;;;4995066;28;20045;-71
2023/06/19 00:15:09;;;;;;;15.65;14.18;;;21.80;85.40;;;;;;5011166;28;20121;-71
2023/06/19 00:17:37;;;;;;;15.65;13.30;;;21.80;85.50;;;;;;4995606;28;20057;-71
2023/06/19 00:20:10;;;;;;;14.93;13.45;;;21.80;85.60;;;;;;5004377;28;20050;-71
2023/06/19 00:22:37;;;;;;;15.77;13.82;;;21.80;85.80;;;;;;4992147;28;20076;-71
2023/06/19 00:25:05;;;;;;;15.02;13.10;;;21.80;86.10;;;;;;5010991;28;20076;-71
2023/06/19 00:27:35;;;;;;;14.30;12.85;;;21.80;86.50;;;;;;5020375;28;20054;-72
2023/06/19 00:30:05;;;;;;;14.68;13.20;;;21.80;86.90;;;;;;5010536;28;20672;-72
2023/06/19 00:32:46;;;;;;;14.77;13.38;;;21.70;87.10;;;;;;5008082;28;20130;-71
2023/06/19 00:35:15;;;;;;;15.50;13.85;;;21.70;87.30;;;;;;4993271;28;20046;-70
2023/06/19 00:37:47;;;;;;;14.90;13.40;;;21.70;87.80;;;;;;5010430;28;20148;-72
2023/06/19 00:40:24;;;;;;;14.68;13.02;;;21.70;88.00;;;;;;5011631;28;20553;-71
2023/06/19 00:42:52;;;;;;;14.70;13.30;;;21.70;88.30;;;;;;5007043;28;20053;-72
2023/06/19 00:45:20;;;;;;;14.35;13.02;;;21.70;88.30;;;;;;5004765;28;20042;-73
2023/06/19 00:47:49;;;;;;;14.18;12.88;;;21.70;88.40;;;;;;4981932;28;20041;-72
2023/06/19 00:50:17;;;;;;;14.85;13.48;;;21.60;88.90;;;;;;5010717;28;20050;-72
2023/06/19 00:52:44;;;;;;;14.57;13.07;;;21.60;89.50;;;;;;4992798;28;20064;-72
2023/06/19 00:55:14;;;;;;;15.40;14.00;;;21.60;89.40;;;;;;5008883;28;20418;-72
2023/06/19 00:57:42;;;;;;;14.23;12.73;;;21.60;90.00;;;;;;5017498;28;20112;-72
2023/06/19 01:00:12;;;;;;;14.05;12.65;;;21.60;90.00;;;;;;4977655;28;20061;-72
2023/06/19 01:02:40;;;;;;;14.73;13.20;;;21.60;90.00;;;;;;4976118;28;20041;-72
2023/06/19 01:05:07;;;;;;;13.95;12.55;;;21.60;89.90;;;;;;5004189;28;20045;-73
2023/06/19 01:07:57;;;;;;;14.65;13.15;;;21.70;89.70;;;;;;5010778;28;20136;-73
2023/06/19 01:10:36;;;;;;;13.82;12.52;;;21.70;88.80;;;;;;5023504;28;20524;-72
2023/06/19 01:13:16;;;;;;;13.60;12.30;;;21.70;88.50;;;;;;5004377;28;20145;-72
2023/06/19 01:15:47;;;;;;;14.13;12.63;;;21.70;88.30;;;;;;5009417;28;20054;-73
2023/06/19 01:18:16;;;;;;;14.00;12.57;;;21.60;88.20;;;;;;5010886;28;20140;-72
2023/06/19 01:20:44;;;;;;;13.18;11.88;;;21.60;88.20;;;;;;4992166;28;20120;-72
2023/06/19 01:23:12;;;;;;;14.10;12.70;;;21.60;87.70;;;;;;5009707;28;20054;-71
2023/06/19 01:25:40;;;;;;;13.90;12.52;;;21.60;88.20;;;;;;4992638;28;20156;-72
2023/06/19 01:28:11;;;;;;;12.63;11.30;;;21.50;88.40;;;;;;4981127;28;20092;-72
2023/06/19 01:30:41;;;;;;;14.20;12.73;;;21.60;88.00;;;;;;5008181;28;20042;-73
2023/06/19 01:33:22;;;;;;;14.88;13.43;;;21.50;88.30;;;;;;4993996;28;20073;-72
2023/06/19 01:35:50;;;;;;;14.98;13.15;;;21.50;88.60;;;;;;5000135;28;20100;-73
2023/06/19 01:38:25;;;;;;;14.52;13.13;;;21.40;89.30;;;;;;5009110;28;20046;-72
2023/06/19 01:40:57;;;;;;;14.15;12.75;;;21.40;90.10;;;;;;5011473;28;20132;-72
2023/06/19 01:43:28;;;;;;;15.13;13.63;;;21.20;90.50;;;;;;4993571;28;20124;-73
2023/06/19 01:45:55;;;;;;;15.70;14.20;;;21.20;91.00;;;;;;5009772;28;20041;-72
2023/06/19 01:48:24;;;;;;;14.93;13.43;;;21.10;91.30;;;;;;5007530;28;20045;-73
2023/06/19 01:50:51;;;;;;;15.55;13.90;;;21.10;91.60;;;;;;4991786;28;20141;-72
2023/06/19 01:53:19;;;;;;;14.57;13.07;;;21.00;91.80;;;;;;4992191;28;20046;-72
2023/06/19 01:55:47;;;;;;;14.80;13.27;;;21.00;92.30;;;;;;4992341;28;20061;-71
2023/06/19 01:58:15;;;;;;;14.77;13.27;;;20.90;92.40;;;;;;5008923;28;20125;-72
2023/06/19 02:00:43;;;;;;;14.05;12.75;;;20.90;92.80;;;;;;4997914;28;20045;-72
2023/06/19 02:03:10;;;;;;;15.43;13.82;;;20.80;92.90;;;;;;4992333;28;20108;-72
2023/06/19 02:05:40;;;;;;;14.68;13.18;;;20.80;93.20;;;;;;4991468;28;20054;-71
2023/06/19 02:08:07;;;;;;;14.93;13.43;;;20.70;93.20;;;;;;5007493;28;20128;-72
2023/06/19 02:10:36;;;;;;;14.93;13.43;;;20.70;93.40;;;;;;5007946;28;20053;-71
2023/06/19 02:13:04;;;;;;;15.45;13.95;;;20.70;93.60;;;;;;5008118;28;20053;-71
2023/06/19 02:15:31;;;;;;;14.55;13.05;;;20.60;93.70;;;;;;5007340;28;20049;-72
2023/06/19 02:18:00;;;;;;;16.75;13.13;;;20.60;93.60;;;;;;5000017;28;20112;-72
2023/06/19 02:20:27;;;;;;;14.63;13.25;;;20.70;93.30;;;;;;5007634;28;20045;-72
2023/06/19 02:22:58;;;;;;;14.40;13.00;;;20.70;93.20;;;;;;5012088;28;20054;-72
2023/06/19 02:25:26;;;;;;;14.88;13.27;;;20.70;93.00;;;;;;5009484;28;20529;-71
2023/06/19 02:27:53;;;;;;;14.23;12.70;;;20.70;92.90;;;;;;5008194;28;20259;-72
2023/06/19 02:30:21;;;;;;;14.10;12.63;;;20.70;92.70;;;;;;4991476;28;20057;-71
2023/06/19 02:32:49;;;;;;;13.98;12.63;;;20.70;92.60;;;;;;4982613;28;20061;-72
2023/06/19 02:35:17;;;;;;;13.75;12.30;;;20.70;92.50;;;;;;4992653;28;20513;-72
2023/06/19 02:37:46;;;;;;;13.75;12.45;;;20.80;92.50;;;;;;4991221;28;20058;-72
2023/06/19 02:40:14;;;;;;;14.07;12.68;;;20.80;92.30;;;;;;5007329;28;20446;-72
2023/06/19 02:42:41;;;;;;;14.23;12.73;;;20.80;92.20;;;;;;5007740;28;20120;-72
2023/06/19 02:45:09;;;;;;;14.55;13.10;;;20.90;92.20;;;;;;5004901;28;20058;-72
2023/06/19 02:47:38;;;;;;;14.85;13.10;;;20.90;92.10;;;;;;5009661;28;20160;-72
2023/06/19 02:50:06;;;;;;;14.27;12.98;;;21.00;91.90;;;;;;5008829;28;20057;-71
2023/06/19 02:52:36;;;;;;;13.38;12.02;;;21.10;91.80;;;;;;5006418;28;20493;-72
2023/06/19 02:55:04;;;;;;;13.90;12.60;;;21.10;91.60;;;;;;5016021;28;20053;-71
2023/06/19 02:57:33;;;;;;;16.00;13.50;;;21.10;91.30;;;;;;5034545;28;20112;-72
2023/06/19 03:00:05;;;;;;;14.23;12.93;;;21.10;91.10;;;;;;5013855;28;20046;-72
2023/06/19 03:02:33;;;;;;;14.40;13.10;;;21.20;91.10;;;;;;4995471;28;20053;-72
2023/06/19 03:05:02;;;;;;;14.15;12.55;;;21.20;90.90;;;;;;5012918;28;20050;-72
2023/06/19 03:07:30;;;;;;;14.07;12.73;;;21.20;91.00;;;;;;5026704;28;20045;-70
2023/06/19 03:09:59;;;;;;;15.93;12.90;;;21.30;90.90;;;;;;5034450;28;20046;-70
2023/06/19 03:12:28;;;;;;;14.13;12.73;;;21.30;90.90;;;;;;5015347;28;20061;-71
2023/06/19 03:14:56;;;;;;;13.93;12.25;;;21.30;90.80;;;;;;5001790;28;20445;-72
2023/06/19 03:17:26;;;;;;;13.50;12.15;;;21.40;91.00;;;;;;4996150;28;20054;-71
2023/06/19 03:19:54;;;;;;;13.73;12.32;;;21.40;91.00;;;;;;4994519;28;20077;-71
2023/06/19 03:22:23;;;;;;;14.43;13.02;;;21.40;90.90;;;;;;5019073;28;20521;-71
2023/06/19 03:24:52;;;;;;;14.27;12.88;;;21.40;90.70;;;;;;4979042;28;20417;-71
2023/06/19 03:27:21;;;;;;;14.43;13.07;;;21.40;90.90;;;;;;4991629;28;20065;-71
2023/06/19 03:29:49;;;;;;;14.65;13.10;;;21.50;90.80;;;;;;5003887;28;20074;-71
2023/06/19 03:32:23;;;;;;;14.10;12.60;;;21.50;90.80;;;;;;4995675;28;20053;-71
2023/06/19 03:34:51;;;;;;;14.02;12.52;;;21.50;90.70;;;;;;4983239;28;20089;-71
2023/06/19 03:37:18;;;;;;;13.82;12.45;;;21.50;90.70;;;;;;5016056;28;20050;-71
2023/06/19 03:39:46;;;;;;;14.85;13.35;;;21.60;90.70;;;;;;4979272;28;20056;-71
2023/06/19 03:42:14;;;;;;;13.90;12.60;;;21.60;90.70;;;;;;5010400;28;20132;-71
2023/06/19 03:44:42;;;;;;;13.13;11.82;;;21.60;90.70;;;;;;4994122;28;20149;-71
2023/06/19 03:47:10;;;;;;;13.85;12.55;;;21.60;90.70;;;;;;4994418;28;20065;-71
2023/06/19 03:49:37;;;;;;;12.98;11.65;;;21.60;90.80;;;;;;5011230;28;20052;-71
2023/06/19 03:52:07;;;;;;;13.35;11.93;;;21.60;90.80;;;;;;5013452;28;20053;-71
2023/06/19 03:54:34;;;;;;;14.70;13.23;;;21.70;91.00;;;;;;5012932;28;20088;-71
2023/06/19 03:57:02;;;;;;;13.60;12.30;;;21.70;91.10;;;;;;4999453;28;20053;-71
2023/06/19 03:59:30;;;;;;;15.82;12.85;;;21.70;91.20;;;;;;4995237;28;20054;-71
2023/06/19 04:01:58;;;;;;;12.95;11.75;;;21.80;91.10;;;;;;4991267;28;20592;-71
2023/06/19 04:04:25;;;;;;;14.38;12.80;;;21.80;91.20;;;;;;4990337;28;20100;-71
2023/06/19 04:06:55;;;;;;;12.80;11.50;;;21.90;91.40;;;;;;5009030;28;20057;-71
2023/06/19 04:09:22;;;;;;;13.48;12.15;;;21.80;91.50;;;;;;4989473;28;20047;-71
2023/06/19 04:11:50;;;;;;;18.85;12.40;;;21.90;91.50;;;;;;4981294;28;20429;-71
2023/06/19 04:14:23;;;;;;;14.73;13.20;;;21.90;91.70;;;;;;4996890;28;20050;-70
2023/06/19 04:16:50;;;;;;;15.23;13.30;;;21.80;91.80;;;;;;4974097;28;20062;-71
2023/06/19 04:19:18;;;;;;;14.23;12.80;;;21.80;92.00;;;;;;5004539;28;20637;-71
2023/06/19 04:21:46;;;;;;;14.95;13.45;;;21.80;92.20;;;;;;4992528;28;20343;-71
2023/06/19 04:24:15;;;;;;;14.82;13.43;;;21.80;92.30;;;;;;4992216;28;20038;-71
2023/06/19 04:26:43;;;;;;;14.77;13.38;;;21.80;92.40;;;;;;5009589;28;20502;-71
2023/06/19 04:29:16;;;;;;;14.68;13.25;;;21.80;92.50;;;;;;5009761;28;20080;-71
2023/06/19 04:31:46;;;;;;;17.27;13.02;;;21.90;92.60;;;;;;5008115;28;20132;-71
2023/06/19 04:34:22;;;;;;;15.23;12.35;;;21.90;92.80;;;;;;5008517;28;20501;-71
2023/06/19 04:36:50;;;;;;;15.55;13.50;;;22.00;92.80;;;;;;5008209;28;20404;-71
2023/06/19 04:39:17;;;;;;;15.45;13.10;;;22.00;93.00;;;;;;5010477;28;20065;-71
2023/06/19 04:41:45;;;;;;;14.70;12.68;;;22.10;93.10;;;;;;4977977;28;20073;-72
2023/06/19 04:44:12;;;;;;;14.50;13.10;;;22.10;93.10;;;;;;5010734;28;20080;-71
2023/06/19 04:46:41;;;;;;;14.90;13.48;;;22.10;93.30;;;;;;4996572;28;20473;-71
2023/06/19 04:49:09;;;;;;;15.30;13.40;;;22.20;93.40;;;;;;4981725;28;20042;-71
2023/06/19 04:51:37;;;;;;;15.07;13.63;;;22.20;93.50;;;;;;4976501;28;20270;-71
2023/06/19 04:54:04;;;;;;;15.60;13.95;;;22.30;93.60;;;;;;4988556;28;20057;-71
2023/06/19 04:56:32;;;;;;;16.00;14.38;;;22.20;93.70;;;;;;5018359;28;20390;-71
2023/06/19 04:59:00;;;;;;;15.35;13.75;;;22.30;93.80;;;;;;5000280;28;20421;-71
2023/06/19 05:01:28;;;;;;;16.05;13.82;;;22.40;93.80;;;;;;4988431;28;20165;-71
2023/06/19 05:03:56;;;;;;;15.60;14.07;;;22.50;93.60;;;;;;5008170;28;20045;-71
2023/06/19 05:06:24;;;;;;;15.13;13.57;;;22.60;93.60;;;;;;5008625;28;20054;-71
2023/06/19 05:08:52;;;;;;;17.52;13.85;;;22.60;93.60;;;;;;5007732;28;20080;-71
2023/06/19 05:11:19;;;;;;;16.63;14.68;;;22.70;93.40;;;;;;5008885;28;20054;-71
2023/06/19 05:13:47;;;;;;;16.50;14.43;;;22.80;93.40;;;;;;4993001;28;20045;-71
2023/06/19 05:16:16;;;;;;;15.75;13.75;;;22.90;93.40;;;;;;4977717;28;20067;-71
2023/06/19 05:18:43;;;;;;;16.08;14.38;;;22.80;93.50;;;;;;5013633;28;20060;-71
2023/06/19 05:21:11;;;;;;;15.50;13.82;;;23.00;93.40;;;;;;4992363;28;20104;-71
2023/06/19 05:23:39;;;;;;;16.38;13.75;;;23.10;93.70;;;;;;5008546;28;20579;-71
2023/06/19 05:26:07;;;;;;;23.10;15.13;;;23.20;93.90;;;;;;5015032;28;20115;-71
2023/06/19 05:28:34;;;;;;;33.92;15.52;;;23.20;94.10;;;;;;5009796;28;20045;-71
2023/06/19 05:31:04;;;;;;;19.60;13.85;;;23.30;94.10;;;;;;5014292;28;20609;-73
2023/06/19 05:33:32;;;;;;;17.65;14.32;;;23.30;94.00;;;;;;5014639;28;20535;-71
2023/06/19 05:36:08;;;;;;;15.73;13.38;;;23.40;94.00;;;;;;5017870;28;20119;-71
2023/06/19 05:38:36;;;;;;;20.35;14.43;;;23.60;93.80;;;;;;5010894;28;20054;-71
2023/06/19 05:41:03;;;;;;;18.13;14.80;;;23.80;93.50;;;;;;5006746;28;20053;-71
2023/06/19 05:43:31;;;;;;;15.88;11.77;;;23.90;93.40;;;;;;4992179;28;20089;-71
2023/06/19 05:45:59;;;;;;;13.75;12.40;;;23.80;93.90;;;;;;4993222;28;20187;-72
2023/06/19 05:48:27;;;;;;;22.73;14.38;;;23.80;94.30;;;;;;5007491;28;20046;-71
2023/06/19 05:50:54;;;;;;;15.20;12.60;;;23.90;94.50;;;;;;5009175;28;20049;-71
2023/06/19 05:53:22;;;;;;;14.57;13.00;;;23.80;94.90;;;;;;5009062;28;20108;-71
2023/06/19 05:55:49;;;;;;;16.48;12.70;;;24.00;95.20;;;;;;4995045;28;20080;-71
2023/06/19 05:58:19;;;;;;;13.25;11.85;;;24.10;95.30;;;;;;4994574;28;20054;-72
2023/06/19 06:00:48;;;;;;;14.35;11.43;;;24.00;95.90;;;;;;5007500;28;20050;-71
2023/06/19 06:03:16;;;;;;;12.85;11.55;;;24.00;96.10;;;;;;4987970;28;20145;-71
2023/06/19 06:05:48;;;;;;;14.10;12.52;;;24.20;96.10;;;;;;5008990;28;20140;-71
2023/06/19 06:08:16;;;;;;;13.60;11.68;;;24.20;96.10;;;;;;5008520;28;20478;-71
2023/06/19 06:10:43;;;;;;;14.57;11.73;;;24.40;96.00;;;;;;4991307;28;20513;-71
2023/06/19 06:13:11;;;;;;;12.80;11.55;;;24.40;96.30;;;;;;5008715;28;20084;-71
2023/06/19 06:15:39;;;;;;;13.57;11.60;;;24.20;96.90;;;;;;4992441;28;20138;-71
2023/06/19 06:18:06;;;;;;;12.43;11.13;;;24.10;97.40;;;;;;4997750;28;20576;-71
2023/06/19 06:20:34;;;;;;;12.50;11.40;;;24.00;98.20;;;;;;5008482;28;20061;-71
2023/06/19 06:23:01;;;;;;;15.35;12.07;;;23.90;98.40;;;;;;5000101;28;20038;-72
2023/06/19 06:25:30;;;;;;;13.05;11.23;;;23.80;99.00;;;;;;5008669;28;20439;-72
2023/06/19 06:27:58;;;;;;;12.82;11.52;;;23.70;99.50;;;;;;5006643;28;20100;-72
2023/06/19 06:30:27;;;;;;;13.13;11.73;;;23.60;99.90;;;;;;5008978;28;20045;-72
2023/06/19 06:32:55;;;;;;;12.23;11.02;;;23.50;99.90;;;;;;5010248;28;20112;-72
2023/06/19 06:35:22;;;;;;;12.15;10.98;;;23.70;99.90;;;;;;4992558;28;20086;-72
2023/06/19 06:37:50;;;;;;;13.30;11.88;;;23.70;99.90;;;;;;5005168;28;20050;-72
2023/06/19 06:40:18;;;;;;;12.30;11.10;;;23.70;99.90;;;;;;4959921;28;20058;-71
2023/06/19 06:42:47;;;;;;;12.70;11.50;;;23.50;99.90;;;;;;4992350;28;20045;-71
2023/06/19 06:45:14;;;;;;;12.73;11.43;;;23.50;99.90;;;;;;5008459;28;20054;-72
2023/06/19 06:47:42;;;;;;;12.95;11.60;;;23.60;99.90;;;;;;5008526;28;20406;-72
2023/06/19 06:50:10;;;;;;;12.32;11.02;;;23.70;99.90;;;;;;4999855;28;20117;-72
2023/06/19 06:52:38;;;;;;;12.63;11.38;;;23.70;99.90;;;;;;4993351;28;20433;-70
2023/06/19 06:55:07;;;;;;;11.68;10.63;;;23.80;99.90;;;;;;4991390;28;20137;-71
2023/06/19 06:57:34;;;;;;;14.00;12.00;;;24.00;99.90;;;;;;5001271;28;20112;-71
2023/06/19 07:00:04;;;;;;;12.73;10.90;;;24.10;99.90;;;;;;5006255;28;20093;-71
2023/06/19 07:02:32;;;;;;;12.30;11.13;;;24.00;99.90;;;;;;5006998;28;20046;-71
2023/06/19 07:05:00;;;;;;;12.48;11.18;;;24.20;99.90;;;;;;4990288;28;20050;-72
2023/06/19 07:07:27;;;;;;;12.10;10.95;;;24.30;99.90;;;;;;4989168;28;20423;-71
2023/06/19 07:09:55;;;;;;;13.32;10.65;;;24.30;99.90;;;;;;5008508;28;20048;-71
2023/06/19 07:12:22;;;;;;;11.93;10.70;;;24.40;99.90;;;;;;5007543;28;20149;-72
2023/06/19 07:14:53;;;;;;;13.75;10.88;;;24.70;99.90;;;;;;5007878;28;20133;-72
2023/06/19 07:17:22;;;;;;;13.52;10.68;;;24.90;99.90;;;;;;4990093;28;20096;-71
2023/06/19 07:19:50;;;;;;;14.25;11.93;;;25.30;99.90;;;;;;5007022;28;20124;-73
2023/06/19 07:22:19;;;;;;;12.70;11.40;;;25.50;99.90;;;;;;5006730;28;20045;-72
2023/06/19 07:24:46;;;;;;;13.55;10.65;;;25.70;99.90;;;;;;4990570;28;20042;-71
2023/06/19 07:27:14;;;;;;;11.82;10.52;;;25.70;99.90;;;;;;4999054;28;20493;-71
2023/06/19 07:29:41;;;;;;;10.27;9.38;;;25.80;99.90;;;;;;5006421;28;20531;-73
2023/06/19 07:32:10;;;;;;;14.85;9.40;;;25.90;99.90;;;;;;5006786;28;20509;-73
2023/06/19 07:34:38;;;;;;;10.15;9.25;;;26.10;99.90;;;;;;5006868;28;20042;-72
2023/06/19 07:37:06;;;;;;;11.38;9.73;;;25.90;99.90;;;;;;5016346;28;20054;-72
2023/06/19 07:39:34;;;;;;;11.07;9.90;;;25.80;99.90;;;;;;4992481;28;20537;-72
2023/06/19 07:42:01;;;;;;;11.68;10.00;;;26.00;99.90;;;;;;4994674;28;20516;-72
2023/06/19 07:44:30;;;;;;;9.98;9.00;;;26.00;99.90;;;;;;5011205;28;20521;-71
2023/06/19 07:46:57;;;;;;;11.45;9.10;;;26.20;99.90;;;;;;5010867;28;20125;-72
2023/06/19 07:49:24;;;;;;;10.07;9.27;;;26.20;99.90;;;;;;4993607;28;20128;-72
2023/06/19 07:51:52;;;;;;;9.90;8.80;;;26.20;99.90;;;;;;5014572;28;20136;-72
2023/06/19 07:54:20;;;;;;;10.65;9.70;;;26.10;99.90;;;;;;5015081;28;20100;-72
2023/06/19 07:56:48;;;;;;;9.90;9.00;;;26.20;99.90;;;;;;5012455;28;20042;-72
2023/06/19 07:59:16;;;;;;;10.43;8.93;;;26.50;99.90;;;;;;5017742;28;20137;-72
2023/06/19 08:01:44;;;;;;;10.50;9.50;;;26.30;99.90;;;;;;5009347;28;20510;-71
2023/06/19 08:04:12;;;;;;;9.48;8.30;;;26.20;99.90;;;;;;4997402;28;20425;-72
2023/06/19 08:06:39;;;;;;;8.90;8.00;;;26.20;99.90;;;;;;4992418;28;20082;-71
2023/06/19 08:09:07;;;;;;;8.50;7.70;;;26.00;99.90;;;;;;5009933;28;20044;-72
2023/06/19 08:11:35;;;;;;;8.82;7.93;;;25.80;99.90;;;;;;4994796;28;20089;-72
2023/06/19 08:14:02;;;;;;;8.52;7.63;;;26.00;99.90;;;;;;5008879;28;20045;-72
2023/06/19 08:16:30;;;;;;;7.80;7.03;;;26.00;99.90;;;;;;5004518;28;20128;-71
2023/06/19 08:19:00;;;;;;;8.32;7.53;;;26.00;99.90;;;;;;5001050;28;20169;-72
2023/06/19 08:21:27;;;;;;;8.43;7.53;;;26.10;99.90;;;;;;5028851;28;20063;-72
2023/06/19 08:23:55;;;;;;;8.50;7.80;;;26.50;99.90;;;;;;4997136;28;20073;-72
2023/06/19 08:26:24;;;;;;;8.98;8.00;;;26.40;99.90;;;;;;4994468;28;20522;-72
2023/06/19 08:28:53;;;;;;;9.60;8.10;;;26.50;99.90;;;;;;5017563;28;20046;-73
2023/06/19 08:31:21;;;;;;;10.00;7.97;;;26.50;99.90;;;;;;5008965;28;20142;-72
2023/06/19 08:33:50;;;;;;;8.80;7.93;;;26.20;99.90;;;;;;5010654;28;20057;-72
2023/06/19 08:36:20;;;;;;;8.80;8.10;;;26.50;99.90;;;;;;4994775;28;20069;-72
2023/06/19 08:38:49;;;;;;;9.07;8.20;;;26.80;99.90;;;;;;5006290;28;20184;-72
2023/06/19 08:41:18;;;;;;;9.07;8.27;;;26.70;99.90;;;;;;4979234;28;20053;-72
2023/06/19 08:43:47;;;;;;;8.45;7.70;;;26.80;99.90;;;;;;4992774;28;20132;-72
2023/06/19 08:46:19;;;;;;;8.57;7.78;;;26.50;99.90;;;;;;4993478;28;20576;-72
2023/06/19 08:48:50;;;;;;;9.23;8.32;;;26.80;99.90;;;;;;5008608;28;20126;-72
2023/06/19 08:51:19;;;;;;;8.40;7.60;;;26.80;99.90;;;;;;4999465;28;20062;-73
2023/06/19 08:53:55;;;;;;;8.88;7.97;;;26.80;99.90;;;;;;4975338;28;20054;-73
2023/06/19 08:56:23;;;;;;;9.02;7.80;;;27.30;99.90;;;;;;5003648;28;20053;-72
2023/06/19 08:58:51;;;;;;;8.10;7.40;;;26.90;99.90;;;;;;5025822;28;20057;-73
2023/06/19 09:01:19;;;;;;;8.85;7.97;;;27.00;99.90;;;;;;4993076;28;20532;-71
2023/06/19 09:03:51;;;;;;;8.38;7.68;;;27.40;99.90;;;;;;4991752;28;20045;-71
2023/06/19 09:06:20;;;;;;;8.55;7.75;;;27.40;99.90;;;;;;5008168;28;20050;-71
2023/06/19 09:08:59;;;;;;;8.13;7.40;;;27.60;99.90;;;;;;5007876;28;20064;-72
2023/06/19 09:11:27;;;;;;;8.50;7.68;;;27.40;99.90;;;;;;5008385;28;20046;-71
2023/06/19 09:14:01;;;;;;;11.93;7.63;;;27.10;99.90;;;;;;4991817;28;20050;-71
2023/06/19 09:16:39;;;;;;;8.35;7.55;;;27.10;99.90;;;;;;5019865;28;20149;-72
2023/06/19 09:19:08;;;;;;;10.77;7.82;;;27.10;99.90;;;;;;5009216;28;20038;-72
2023/06/19 09:21:37;;;;;;;8.60;7.80;;;27.40;99.90;;;;;;5008234;28;20053;-72
2023/06/19 09:24:07;;;;;;;8.18;7.47;;;27.50;99.90;;;;;;5015788;28;20069;-73
2023/06/19 09:26:36;;;;;;;10.00;8.00;;;27.40;99.90;;;;;;4992025;28;20054;-73
2023/06/19 09:29:30;;;;;;;8.07;7.28;;;27.40;99.90;;;;;;4991498;28;20375;-73
2023/06/19 09:31:58;;;;;;;8.65;7.78;;;27.90;99.60;;;;;;4993564;28;20065;-71
2023/06/19 09:34:26;;;;;;;9.45;8.20;;;27.40;99.90;;;;;;4984714;28;20104;-72
2023/06/19 09:36:55;;;;;;;9.48;7.82;;;28.00;99.80;;;;;;5010248;28;20064;-73
2023/06/19 09:39:28;;;;;;;8.65;7.93;;;28.30;99.20;;;;;;5008472;28;20049;-72
2023/06/19 09:41:59;;;;;;;8.40;7.70;;;28.60;98.70;;;;;;4992769;28;20583;-72
2023/06/19 09:44:28;;;;;;;8.32;7.63;;;28.90;98.00;;;;;;5007748;28;20422;-72
2023/06/19 09:46:59;;;;;;;8.27;7.57;;;29.10;97.50;;;;;;5025005;28;20049;-72
2023/06/19 09:49:32;;;;;;;9.50;7.93;;;29.40;97.00;;;;;;4998960;28;20509;-72
2023/06/19 09:51:59;;;;;;;9.52;8.25;;;29.60;96.50;;;;;;5012529;28;20132;-71
2023/06/19 09:54:27;;;;;;;8.70;8.00;;;29.30;96.40;;;;;;4974813;28;20050;-72
2023/06/19 09:56:58;;;;;;;8.68;7.88;;;29.20;96.40;;;;;;5010456;28;20160;-72
2023/06/19 09:59:26;;;;;;;8.63;7.93;;;29.00;97.60;;;;;;5007896;28;20045;-71
2023/06/19 10:01:54;;;;;;;9.00;8.30;;;29.10;96.40;;;;;;5006739;28;20038;-73
2023/06/19 10:04:21;;;;;;;9.90;8.60;;;28.90;97.30;;;;;;5009616;28;20064;-72
2023/06/19 10:06:49;;;;;;;9.40;8.15;;;28.70;97.50;;;;;;5010950;28;20414;-73
2023/06/19 10:09:19;;;;;;;9.10;8.20;;;28.90;97.50;;;;;;5010170;28;20101;-72
2023/06/19 10:11:51;;;;;;;9.23;8.45;;;29.10;97.20;;;;;;4992716;28;20076;-72
2023/06/19 10:14:20;;;;;;;10.50;9.32;;;29.00;96.70;;;;;;5012957;28;20046;-74
2023/06/19 10:16:48;;;;;;;9.32;8.43;;;29.40;96.20;;;;;;5018024;28;20049;-73
2023/06/19 10:19:21;;;;;;;10.27;8.48;;;29.70;95.60;;;;;;5000138;28;20050;-73
2023/06/19 10:21:54;;;;;;;9.60;8.80;;;29.90;94.90;;;;;;5029257;28;20053;-72
2023/06/19 10:24:24;;;;;;;9.63;8.65;;;30.40;94.70;;;;;;5009084;28;20065;-73
2023/06/19 10:27:01;;;;;;;9.63;8.73;;;30.00;94.40;;;;;;4984135;28;20069;-72
2023/06/19 10:29:38;;;;;;;9.73;8.73;;;29.70;94.50;;;;;;5007097;28;20443;-72
2023/06/19 10:32:07;;;;;;;8.68;7.88;;;30.10;94.60;;;;;;5006843;28;20382;-72
2023/06/19 10:34:38;;;;;;;9.35;8.27;;;30.10;94.20;;;;;;5006659;28;20168;-73
2023/06/19 10:37:05;;;;;;;9.13;8.20;;;30.10;94.10;;;;;;5008521;28;20160;-72
2023/06/19 10:39:33;;;;;;;8.73;7.93;;;30.10;94.20;;;;;;4990601;28;20050;-73
2023/06/19 10:42:04;;;;;;;10.30;8.38;;;30.10;94.10;;;;;;5009602;28;20050;-73
2023/06/19 10:44:32;;;;;;;9.07;8.18;;;29.80;93.90;;;;;;5005691;28;20050;-72
2023/06/19 10:47:00;;;;;;;8.85;8.15;;;30.10;93.80;;;;;;5006824;28;20136;-72
2023/06/19 10:49:29;;;;;;;9.60;8.70;;;30.30;93.80;;;;;;5016087;28;20049;-72
2023/06/19 10:51:59;;;;;;;9.52;8.73;;;30.60;92.90;;;;;;5016817;28;20149;-72
2023/06/19 10:54:29;;;;;;;9.50;8.60;;;31.00;92.40;;;;;;4992364;28;20057;-72
2023/06/19 10:56:57;;;;;;;8.38;7.57;;;31.50;92.10;;;;;;4973130;28;20573;-73
2023/06/19 10:59:25;;;;;;;8.52;7.82;;;31.90;91.20;;;;;;4974305;28;20109;-72
2023/06/19 11:01:53;;;;;;;8.60;7.90;;;31.90;90.40;;;;;;4991764;28;20072;-73
2023/06/19 11:04:23;;;;;;;8.70;7.90;;;31.60;90.40;;;;;;4995426;28;20092;-72
2023/06/19 11:06:54;;;;;;;8.98;8.07;;;31.40;90.50;;;;;;5008536;28;20066;-73
2023/06/19 11:09:21;;;;;;;9.38;8.57;;;31.60;90.60;;;;;;4999313;28;20478;-73
2023/06/19 11:11:49;;;;;;;10.07;9.20;;;31.50;90.70;;;;;;5010123;28;20058;-72
2023/06/19 11:14:17;;;;;;;9.40;8.65;;;31.80;90.80;;;;;;4973082;28;20426;-72
2023/06/19 11:16:46;;;;;;;11.48;9.77;;;32.30;90.20;;;;;;5013465;28;20369;-73
2023/06/19 11:19:18;;;;;;;10.70;9.60;;;32.80;89.10;;;;;;5011215;28;20469;-73
2023/06/19 11:21:48;;;;;;;10.50;9.50;;;32.70;88.10;;;;;;5017786;28;20504;-73
2023/06/19 11:24:16;;;;;;;10.70;9.70;;;32.80;87.20;;;;;;5007230;28;20057;-73
2023/06/19 11:26:51;;;;;;;11.13;9.57;;;32.90;86.70;;;;;;5013913;28;20042;-73
2023/06/19 11:29:21;;;;;;;11.20;10.20;;;33.20;85.80;;;;;;5003519;28;20129;-72
2023/06/19 11:31:50;;;;;;;11.30;10.40;;;33.60;84.20;;;;;;5009556;28;20072;-73
2023/06/19 11:34:30;;;;;;;10.18;9.38;;;33.60;83.90;;;;;;4967143;28;20457;-73
2023/06/19 11:37:17;;;;;;;11.52;10.43;;;33.90;82.90;;;;;;5007787;28;20068;-73
2023/06/19 11:39:48;;;;;;;10.63;9.68;;;34.20;81.90;;;;;;5011049;28;20100;-73
2023/06/19 11:42:17;;;;;;;9.50;8.65;;;34.20;80.60;;;;;;5012572;28;20129;-73
2023/06/19 11:45:02;;;;;;;10.13;9.02;;;34.40;79.20;;;;;;4980312;28;20433;-73
2023/06/19 11:47:31;;;;;;;9.95;9.05;;;33.80;79.10;;;;;;5012748;28;20081;-74
2023/06/19 11:50:00;;;;;;;9.43;8.52;;;34.10;78.60;;;;;;5012482;28;20060;-73
2023/06/19 11:52:29;;;;;;;8.93;8.20;;;34.80;76.70;;;;;;4993756;28;20137;-74
2023/06/19 11:54:57;;;;;;;8.70;8.00;;;35.00;75.10;;;;;;4996637;28;20056;-72
2023/06/19 11:57:26;;;;;;;10.07;9.27;;;35.40;74.60;;;;;;5011607;28;20053;-74
2023/06/19 11:59:54;;;;;;;9.82;9.02;;;36.10;72.50;;;;;;5003887;28;20137;-72
2023/06/19 12:02:22;;;;;;;9.32;8.60;;;36.40;71.10;;;;;;5012126;28;20061;-73
2023/06/19 12:04:53;;;;;;;19.90;11.23;;;36.60;69.90;;;;;;5011703;28;20056;-75
2023/06/19 12:07:21;;;;;;;11.82;8.90;;;35.80;70.90;;;;;;5010507;28;20552;-73
2023/06/19 12:09:49;;;;;;;8.93;8.13;;;36.20;69.70;;;;;;4994853;28;20054;-74
2023/06/19 12:12:16;;;;;;;12.18;8.38;;;36.40;69.60;;;;;;5026051;28;20100;-73
2023/06/19 12:14:45;;;;;;;9.95;9.20;;;37.00;68.20;;;;;;4994285;28;20104;-74
2023/06/19 12:17:12;;;;;;;10.18;9.27;;;37.60;66.90;;;;;;5010100;28;20189;-72
2023/06/19 12:19:40;;;;;;;10.10;9.15;;;37.70;66.50;;;;;;5012094;28;20129;-72
2023/06/19 12:22:07;;;;;;;10.13;9.18;;;37.60;65.50;;;;;;5016140;28;20123;-72
2023/06/19 12:24:36;;;;;;;10.93;9.93;;;36.80;66.20;;;;;;5010745;28;20066;-72
2023/06/19 12:27:04;;;;;;;11.05;10.15;;;36.50;67.00;;;;;;5023767;28;20404;-72
2023/06/19 12:29:32;;;;;;;12.52;11.25;;;36.40;67.10;;;;;;5011989;28;20050;-72
2023/06/19 12:32:03;;;;;;;10.82;8.98;;;36.30;66.90;;;;;;4993442;28;20100;-72
2023/06/19 12:34:32;;;;;;;9.23;8.52;;;36.30;67.10;;;;;;4984866;28;20057;-73
2023/06/19 12:36:59;;;;;;;9.25;8.55;;;36.00;67.60;;;;;;5011917;28;20050;-73
2023/06/19 12:39:27;;;;;;;9.15;8.32;;;36.00;67.40;;;;;;5011816;28;20044;-73
2023/06/19 12:41:55;;;;;;;9.30;8.60;;;35.80;67.60;;;;;;4993686;28;20061;-73